createdAt,value
2024-05-09T00:00:43.547Z,98971.09
2024-05-09T00:04:46.000Z,98975.56
2024-05-09T00:08:48.320Z,98974.03
2024-05-09T00:12:50.565Z,98979.34
2024-05-09T00:16:52.835Z,98975.72
2024-05-09T00:20:55.147Z,98973.09
2024-05-09T00:24:57.421Z,98971.34
2024-05-09T00:28:59.823Z,98976.63
2024-05-09T00:33:02.239Z,98977.53
2024-05-09T00:37:04.608Z,98968.06
2024-05-09T00:41:06.910Z,98964.66
2024-05-09T00:45:09.200Z,98966.50
2024-05-09T00:49:12.932Z,98957.94
2024-05-09T00:53:16.545Z,98961.53
2024-05-09T00:57:18.868Z,98965.06
2024-05-09T01:01:24.769Z,98959.31
2024-05-09T01:05:27.193Z,98961.28
2024-05-09T01:09:29.490Z,98965.78
2024-05-09T01:13:31.780Z,98959.66
2024-05-09T01:17:34.400Z,98965.69
2024-05-09T01:21:41.521Z,98960.44
2024-05-09T01:25:44.642Z,98961.31
2024-05-09T01:29:47.122Z,98961.31
2024-05-09T01:33:49.447Z,98961.41
2024-05-09T01:37:52.756Z,98961.34
2024-05-09T01:41:55.022Z,98960.38
2024-05-09T01:46:16.482Z,98950.81
2024-05-09T01:50:25.305Z,98946.41
2024-05-09T01:54:37.263Z,98941.38
2024-05-09T01:58:39.466Z,98954.41
2024-05-09T02:02:45.044Z,98943.19
2024-05-09T02:06:47.317Z,98951.91
2024-05-09T02:10:50.655Z,98951.19
2024-05-09T02:14:53.207Z,98948.72
2024-05-09T02:18:55.477Z,98955.66
2024-05-09T02:22:58.373Z,98950.41
2024-05-09T02:27:00.647Z,98954.75
2024-05-09T02:31:02.852Z,98957.25
2024-05-09T02:35:05.387Z,98951.13
2024-05-09T02:39:07.641Z,98955.66
2024-05-09T02:43:12.794Z,98956.66
2024-05-09T02:47:15.594Z,98951.50
2024-05-09T02:51:17.981Z,98945.53
2024-05-09T02:55:20.304Z,98948.19
2024-05-09T02:59:22.824Z,98953.44
2024-05-09T03:03:25.442Z,98966.41
2024-05-09T03:07:27.917Z,98961.09
2024-05-09T03:11:30.240Z,98961.91
2024-05-09T03:15:33.160Z,98956.78
2024-05-09T03:19:36.772Z,98966.31
2024-05-09T03:23:41.685Z,98957.75
2024-05-09T03:27:44.057Z,98957.88
2024-05-09T03:31:46.431Z,98958.81
2024-05-09T03:35:49.407Z,98954.50
2024-05-09T03:39:51.999Z,98951.06
2024-05-09T03:43:54.204Z,98958.88
2024-05-09T03:47:56.632Z,98954.44
2024-05-09T03:51:59.161Z,98959.56
2024-05-09T03:56:03.070Z,98956.97
2024-05-09T04:00:12.000Z,98956.22
2024-05-09T04:04:19.924Z,98965.00
2024-05-09T04:08:22.231Z,98966.69
2024-05-09T04:12:24.527Z,98957.09
2024-05-09T04:16:26.813Z,98951.88
2024-05-09T04:20:37.130Z,98954.25
2024-05-09T04:24:42.139Z,98961.88
2024-05-09T04:28:44.469Z,98968.31
2024-05-09T04:32:46.922Z,98974.03
2024-05-09T04:36:49.296Z,98968.78
2024-05-09T04:40:51.636Z,98961.03
2024-05-09T04:44:56.522Z,98962.06
2024-05-09T04:49:00.893Z,98968.59
2024-05-09T04:53:03.581Z,98971.03
2024-05-09T04:57:06.110Z,98966.13
2024-05-09T05:01:08.516Z,98963.72
2024-05-09T05:05:12.066Z,98966.41
2024-05-09T05:09:14.475Z,98954.66
2024-05-09T05:13:18.445Z,98954.09
2024-05-09T05:17:21.580Z,98963.38
2024-05-09T05:21:24.025Z,98958.25
2024-05-09T05:25:26.386Z,98952.84
2024-05-09T05:29:28.728Z,98954.75
2024-05-09T05:33:31.253Z,98972.19
2024-05-09T05:37:33.727Z,98956.47
2024-05-09T05:41:36.074Z,98961.88
2024-05-09T05:45:39.130Z,98959.06
2024-05-09T05:49:41.763Z,98964.09
2024-05-09T05:53:44.781Z,98969.84
2024-05-09T05:57:47.178Z,98965.59
2024-05-09T06:01:50.245Z,98968.38
2024-05-09T06:05:52.559Z,98971.28
2024-05-09T06:09:56.015Z,98970.59
2024-05-09T06:13:58.545Z,98971.09
2024-05-09T06:18:01.188Z,98964.06
2024-05-09T06:22:03.990Z,98969.34
2024-05-09T06:26:06.299Z,98972.16
2024-05-09T06:30:14.415Z,98967.75
2024-05-09T06:34:23.258Z,98963.34
2024-05-09T06:38:26.631Z,98953.81
2024-05-09T06:42:29.110Z,98959.41
2024-05-09T06:46:31.425Z,98962.50
2024-05-09T06:50:37.630Z,98963.56
2024-05-09T06:54:41.528Z,98976.72
2024-05-09T06:58:43.838Z,98975.47
2024-05-09T07:02:46.260Z,98967.22
2024-05-09T07:06:48.620Z,98970.69
2024-05-09T07:10:50.992Z,98971.16
2024-05-09T07:14:53.336Z,98977.16
2024-05-09T07:18:55.889Z,98979.25
2024-05-09T07:22:58.696Z,98971.72
2024-05-09T07:27:01.943Z,98984.97
2024-05-09T07:31:04.337Z,98971.78
2024-05-09T07:35:06.718Z,98976.66
2024-05-09T07:39:09.516Z,98972.25
2024-05-09T07:43:12.961Z,98974.38
2024-05-09T07:48:28.884Z,98970.00
2024-05-09T07:53:14.348Z,98971.97
2024-05-09T07:56:01.901Z,98971.50
2024-05-09T08:00:06.033Z,98969.38
2024-05-09T08:04:08.862Z,98963.94
2024-05-09T08:08:11.466Z,98962.47
2024-05-09T08:12:13.840Z,98968.47
2024-05-09T08:16:16.223Z,98963.22
2024-05-09T08:20:26.857Z,98972.34
2024-05-09T08:24:35.661Z,98967.53
2024-05-09T08:28:37.946Z,98962.38
2024-05-09T08:32:40.699Z,98958.19
2024-05-09T08:36:43.159Z,98958.19
2024-05-09T08:40:45.683Z,98959.72
2024-05-09T08:44:49.242Z,98955.53
2024-05-09T08:48:52.825Z,98946.59
2024-05-09T08:52:55.487Z,98948.38
2024-05-09T08:56:58.249Z,98947.09
2024-05-09T09:01:04.038Z,98946.69
2024-05-09T09:05:11.220Z,98953.56
2024-05-09T09:09:14.189Z,98951.63
2024-05-09T09:13:16.348Z,98949.91
2024-05-09T09:17:20.424Z,98949.00
2024-05-09T09:21:22.714Z,98946.84
2024-05-09T09:25:24.975Z,98944.16
2024-05-09T09:29:27.307Z,98945.16
2024-05-09T09:33:33.126Z,98957.94
2024-05-09T09:37:38.008Z,98938.16
2024-05-09T09:41:43.572Z,98936.03
2024-05-09T09:45:49.805Z,98935.41
2024-05-09T09:49:53.015Z,98931.28
2024-05-09T09:53:56.440Z,98926.84
2024-05-09T09:57:59.743Z,98920.50
2024-05-09T10:02:02.466Z,98923.06
2024-05-09T10:06:06.909Z,98924.44
2024-05-09T10:10:13.999Z,98916.53
2024-05-09T10:14:22.264Z,98914.13
2024-05-09T10:18:28.396Z,98918.66
2024-05-09T10:22:34.014Z,98916.53
2024-05-09T10:26:37.457Z,98918.94
2024-05-09T10:30:40.036Z,98916.78
2024-05-09T10:34:47.139Z,98912.53
2024-05-09T10:38:53.835Z,98913.44
2024-05-09T10:42:56.876Z,98908.34
2024-05-09T10:46:59.311Z,98897.34
2024-05-09T10:51:01.711Z,98893.00
2024-05-09T10:55:05.782Z,98895.66
2024-05-09T10:59:08.214Z,98885.41
2024-05-09T11:03:11.649Z,98893.00
2024-05-09T11:07:16.371Z,98896.56
2024-05-09T11:11:18.905Z,98880.13
2024-05-09T11:15:26.684Z,98879.59
2024-05-09T11:19:31.023Z,98876.69
2024-05-09T11:23:34.611Z,98881.22
2024-05-09T11:27:36.928Z,98871.91
2024-05-09T11:31:48.886Z,98866.34
2024-05-09T11:35:51.463Z,98866.31
2024-05-09T11:39:54.205Z,98864.09
2024-05-09T11:43:57.960Z,98852.81
2024-05-09T11:48:00.440Z,98850.94
2024-05-09T11:52:02.838Z,98849.38
2024-05-09T11:56:05.422Z,98839.31
2024-05-09T12:00:11.867Z,98840.16
2024-05-09T12:04:14.627Z,98833.44
2024-05-09T12:08:17.099Z,98829.22
2024-05-09T12:12:19.375Z,98824.69
2024-05-09T12:16:21.874Z,98823.59
2024-05-09T12:20:32.371Z,98819.44
2024-05-09T12:24:38.668Z,98825.78
2024-05-09T12:28:40.931Z,98821.13
2024-05-09T12:32:43.267Z,98810.75
2024-05-09T12:36:45.714Z,98815.22
2024-05-09T12:40:48.177Z,98812.03
2024-05-09T12:44:50.443Z,98806.47
2024-05-09T12:48:53.696Z,98803.97
2024-05-09T12:52:56.308Z,98802.69
2024-05-09T12:56:58.621Z,98803.50
2024-05-09T13:01:01.164Z,98789.28
2024-05-09T13:05:03.908Z,98784.47
2024-05-09T13:09:06.398Z,98773.50
2024-05-09T13:13:12.022Z,98766.69
2024-05-09T13:17:14.451Z,98771.81
2024-05-09T13:21:16.705Z,98773.91
2024-05-09T13:25:19.100Z,98763.88
2024-05-09T13:29:27.231Z,98755.81
2024-05-09T13:33:29.720Z,98759.47
2024-05-09T13:37:33.157Z,98756.28
2024-05-09T13:41:35.434Z,98745.81
2024-05-09T13:45:37.753Z,98745.94
2024-05-09T13:49:40.201Z,98742.44
2024-05-09T13:53:42.542Z,98743.47
2024-05-09T13:57:44.947Z,98731.56
2024-05-09T14:01:47.274Z,98740.41
2024-05-09T14:05:51.181Z,98722.16
2024-05-09T14:09:54.710Z,98723.88
2024-05-09T14:13:57.120Z,98716.00
2024-05-09T14:17:59.406Z,98719.41
2024-05-09T14:22:01.822Z,98715.13
2024-05-09T14:26:04.449Z,98712.41
2024-05-09T14:30:14.920Z,98701.22
2024-05-09T14:34:24.867Z,98691.69
2024-05-09T14:38:27.754Z,98688.31
2024-05-09T14:42:30.076Z,98695.00
2024-05-09T14:46:32.375Z,98686.41
2024-05-09T14:50:38.367Z,98685.97
2024-05-09T14:54:42.476Z,98678.09
2024-05-09T14:58:44.759Z,98679.38
2024-05-09T15:02:48.024Z,98677.78
2024-05-09T15:06:50.430Z,98671.13
2024-05-09T15:10:52.955Z,98673.16
2024-05-09T15:14:55.427Z,98664.75
2024-05-09T15:23:00.155Z,98665.25
2024-05-09T15:27:02.599Z,98659.81
2024-05-09T15:31:05.072Z,98649.38
2024-05-09T15:35:07.670Z,98647.78
2024-05-09T15:39:10.020Z,98642.78
2024-05-09T15:43:12.443Z,98642.56
2024-05-09T15:47:14.999Z,98647.03
2024-05-09T15:51:17.277Z,98644.28
2024-05-09T15:55:19.598Z,98643.97
2024-05-09T15:59:39.010Z,98631.50
2024-05-09T16:03:41.466Z,98638.50
2024-05-09T16:07:43.911Z,98630.00
2024-05-09T16:11:46.188Z,98634.91
2024-05-09T16:15:48.694Z,98624.38
2024-05-09T16:19:51.124Z,98631.50
2024-05-09T16:23:53.323Z,98616.59
2024-05-09T16:27:55.736Z,98631.50
2024-05-09T16:31:57.979Z,98629.13
2024-05-09T16:36:00.385Z,98622.78
2024-05-09T16:40:04.385Z,98618.28
2024-05-09T16:44:08.041Z,98629.13
2024-05-09T16:48:11.560Z,98619.75
2024-05-09T16:52:15.126Z,98610.91
2024-05-09T16:56:17.723Z,98617.84
2024-05-09T17:00:31.025Z,98611.47
2024-05-09T17:04:42.823Z,98608.88
2024-05-09T17:08:45.384Z,98604.97
2024-05-09T17:12:47.686Z,98619.19
2024-05-09T17:16:50.024Z,98608.03
2024-05-09T17:20:52.527Z,98611.69
2024-05-09T17:24:54.853Z,98609.66
2024-05-09T17:28:57.379Z,98612.19
2024-05-09T17:32:59.798Z,98613.53
2024-05-09T17:37:02.279Z,98605.97
2024-05-09T17:41:04.765Z,98611.75
2024-05-09T17:45:07.469Z,98615.84
2024-05-09T17:49:09.863Z,98617.94
2024-05-09T17:53:12.147Z,98608.78
2024-05-09T17:57:14.363Z,98607.41
2024-05-09T18:01:16.670Z,98611.59
2024-05-09T18:05:19.073Z,98616.72
2024-05-09T18:09:21.381Z,98614.28
2024-05-09T18:13:23.750Z,98604.97
2024-05-09T18:17:26.387Z,98606.09
2024-05-09T18:21:28.802Z,98607.31
2024-05-09T18:25:31.176Z,98608.88
2024-05-09T18:29:33.439Z,98612.16
2024-05-09T18:33:35.885Z,98609.00
2024-05-09T18:37:42.948Z,98613.94
2024-05-09T18:41:45.216Z,98601.97
2024-05-09T18:45:47.779Z,98615.13
2024-05-09T18:49:50.734Z,98619.81
2024-05-09T18:53:55.131Z,98620.81
2024-05-09T18:57:57.483Z,98620.81
2024-05-09T19:01:59.939Z,98627.34
2024-05-09T19:06:02.536Z,98633.81
2024-05-09T19:10:07.483Z,98631.41
2024-05-09T19:14:14.068Z,98637.16
2024-05-09T19:18:17.278Z,98641.19
2024-05-09T19:22:19.803Z,98646.00
2024-05-09T19:26:25.470Z,98645.59
2024-05-09T19:30:36.716Z,98653.41
2024-05-09T19:34:43.121Z,98651.16
2024-05-09T19:38:45.615Z,98657.56
2024-05-09T19:42:47.866Z,98657.53
2024-05-09T19:46:50.232Z,98661.09
2024-05-09T19:50:53.283Z,98656.09
2024-05-09T19:54:55.851Z,98659.75
2024-05-09T19:58:58.134Z,98658.41
2024-05-09T20:03:00.676Z,98661.41
2024-05-09T20:07:03.105Z,98657.84
2024-05-09T20:11:05.703Z,98654.72
2024-05-09T20:15:08.476Z,98661.47
2024-05-09T20:19:10.855Z,98669.03
2024-05-09T20:23:13.827Z,98668.50
2024-05-09T20:27:16.082Z,98670.22
2024-05-09T20:31:23.061Z,98666.94
2024-05-09T20:35:26.584Z,98662.63
2024-05-09T20:39:28.925Z,98665.53
2024-05-09T20:43:31.280Z,98670.84
2024-05-09T20:47:33.580Z,98665.81
2024-05-09T20:51:35.919Z,98676.72
2024-05-09T20:55:38.893Z,98673.19
2024-05-09T20:59:41.113Z,98674.38
2024-05-09T21:03:43.784Z,98668.69
2024-05-09T21:07:46.083Z,98675.75
2024-05-09T21:11:48.386Z,98676.78
2024-05-09T21:15:51.149Z,98681.38
2024-05-09T21:19:53.535Z,98675.63
2024-05-09T21:23:55.811Z,98678.59
2024-05-09T21:27:58.652Z,98675.38
2024-05-09T21:32:01.044Z,98674.78
2024-05-09T21:36:03.344Z,98686.47
2024-05-09T21:40:11.318Z,98679.69
2024-05-09T21:44:16.043Z,98675.75
2024-05-09T21:48:18.294Z,98675.97
2024-05-09T21:52:20.671Z,98672.50
2024-05-09T21:56:22.885Z,98679.38
2024-05-09T22:00:32.893Z,98670.53
2024-05-09T22:04:39.923Z,98673.97
2024-05-09T22:08:42.530Z,98670.84
2024-05-09T22:12:44.847Z,98678.41
2024-05-09T22:16:47.164Z,98683.38
2024-05-09T22:20:49.856Z,98680.97
2024-05-09T22:24:52.145Z,98680.63
2024-05-09T22:28:54.446Z,98680.09
2024-05-09T22:32:56.768Z,98682.06
2024-05-09T22:36:59.089Z,98689.91
2024-05-09T22:41:01.609Z,98677.03
2024-05-09T22:45:04.051Z,98683.28
2024-05-09T22:49:07.050Z,98672.31
2024-05-09T22:53:09.366Z,98680.44
2024-05-09T22:57:11.578Z,98678.22
2024-05-09T23:01:16.769Z,98674.78
2024-05-09T23:05:19.203Z,98674.63
2024-05-09T23:09:21.578Z,98674.59
2024-05-09T23:13:23.879Z,98661.66
2024-05-09T23:17:26.341Z,98666.94
2024-05-09T23:21:28.642Z,98665.31
2024-05-09T23:25:30.941Z,98666.03
2024-05-09T23:29:33.199Z,98659.91
2024-05-09T23:33:35.837Z,98659.91
2024-05-09T23:37:38.175Z,98665.56
2024-05-09T23:41:40.404Z,98667.97
2024-05-09T23:45:43.337Z,98661.22
2024-05-09T23:49:45.715Z,98650.94
2024-05-09T23:53:48.030Z,98652.94
2024-05-09T23:57:50.284Z,98650.97
